createdAt,value
2016-04-12T00:00:34.550Z,10.26
2016-04-12T00:01:34.631Z,10.35
2016-04-12T00:02:34.509Z,10.33
2016-04-12T00:03:34.495Z,10.33
2016-04-12T00:04:34.451Z,10.31
2016-04-12T00:05:34.422Z,10.37
2016-04-12T00:06:34.410Z,10.31
2016-04-12T00:07:34.381Z,10.41
2016-04-12T00:08:34.358Z,10.35
2016-04-12T00:09:34.336Z,10.35
2016-04-12T00:10:34.307Z,10.38
2016-04-12T00:11:34.294Z,10.42
2016-04-12T00:12:34.265Z,10.4
2016-04-12T00:13:34.237Z,10.41
2016-04-12T00:14:34.208Z,10.4
2016-04-12T00:15:34.195Z,10.4
2016-04-12T00:16:34.072Z,10.41
2016-04-12T00:17:34.153Z,10.4
2016-04-12T00:18:34.125Z,10.34
2016-04-12T00:19:34.096Z,10.35
2016-04-12T00:20:34.068Z,10.35
2016-04-12T00:21:34.038Z,10.37
2016-04-12T00:22:34.027Z,10.4
2016-04-12T00:23:33.998Z,10.46
2016-04-12T00:24:33.985Z,10.49
2016-04-12T00:25:33.956Z,10.37
2016-04-12T00:26:33.928Z,10.37
2016-04-12T00:27:33.914Z,10.4
2016-04-12T00:28:33.887Z,10.4
2016-04-12T00:29:33.858Z,10.4
2016-04-12T00:30:33.843Z,10.41
2016-04-12T00:31:33.877Z,10.4
2016-04-12T00:32:33.782Z,10.44
2016-04-12T00:33:33.754Z,10.42
2016-04-12T00:34:33.740Z,10.35
2016-04-12T00:35:33.712Z,10.31
2016-04-12T00:36:33.684Z,10.34
2016-04-12T00:37:33.656Z,10.41
2016-04-12T00:38:33.643Z,10.34
2016-04-12T00:39:33.614Z,10.33
2016-04-12T00:40:33.601Z,10.37
2016-04-12T00:41:33.572Z,10.41
2016-04-12T00:42:33.576Z,10.4
2016-04-12T00:43:33.515Z,10.46
2016-04-12T00:44:33.486Z,10.38
2016-04-12T00:45:33.475Z,10.28
2016-04-12T00:46:33.539Z,10.34
2016-04-12T00:47:33.433Z,10.33
2016-04-12T00:48:33.403Z,10.42
2016-04-12T00:49:33.376Z,10.37
2016-04-12T00:50:33.347Z,10.38
2016-04-12T00:51:33.334Z,10.33
2016-04-12T00:52:33.305Z,10.33
2016-04-12T00:53:33.277Z,10.35
2016-04-12T00:54:33.249Z,10.35
2016-04-12T00:55:33.236Z,10.37
2016-04-12T00:56:33.222Z,10.37
2016-04-12T00:57:33.177Z,10.34
2016-04-12T00:58:33.166Z,10.38
2016-04-12T00:59:33.137Z,10.42
2016-04-12T01:00:33.107Z,10.4
2016-04-12T01:01:33.096Z,10.4
2016-04-12T01:02:33.066Z,10.41
2016-04-12T01:03:33.038Z,10.44
2016-04-12T01:04:33.025Z,10.4
2016-04-12T01:05:32.996Z,10.49
2016-04-12T01:06:32.968Z,10.37
2016-04-12T01:07:32.940Z,10.46
2016-04-12T01:08:32.926Z,10.44
2016-04-12T01:09:32.898Z,10.42
2016-04-12T01:10:32.870Z,10.41
2016-04-12T01:11:32.841Z,10.37
2016-04-12T01:12:32.828Z,10.46
2016-04-12T01:13:32.799Z,10.35
2016-04-12T01:14:32.770Z,10.35
2016-04-12T01:15:32.758Z,10.38
2016-04-12T01:16:32.729Z,10.38
2016-04-12T01:17:32.716Z,10.41
2016-04-12T01:18:32.672Z,10.38
2016-04-12T01:19:32.659Z,10.41
2016-04-12T01:20:32.630Z,10.48
2016-04-12T01:21:32.617Z,10.46
2016-04-12T01:22:32.589Z,10.48
2016-04-12T01:23:32.574Z,10.38
2016-04-12T01:24:32.530Z,10.46
2016-04-12T01:25:32.516Z,10.41
2016-04-12T01:26:32.488Z,10.41
2016-04-12T01:27:32.460Z,10.4
2016-04-12T01:28:32.446Z,10.33
2016-04-12T01:29:32.418Z,10.42
2016-04-12T01:30:32.389Z,10.38
2016-04-12T01:31:32.376Z,10.42
2016-04-12T01:32:32.348Z,10.35
2016-04-12T01:33:32.319Z,10.42
2016-04-12T01:34:32.306Z,10.35
2016-04-12T01:35:32.277Z,10.42
2016-04-12T01:36:32.249Z,10.38
2016-04-12T01:37:32.220Z,10.4
2016-04-12T01:38:32.207Z,10.37
2016-04-12T01:39:32.179Z,10.37
2016-04-12T01:40:32.150Z,10.34
2016-04-12T01:41:32.137Z,10.31
2016-04-12T01:42:32.109Z,10.35
2016-04-12T01:43:32.080Z,10.34
2016-04-12T01:44:32.052Z,10.33
2016-04-12T01:45:32.039Z,10.31
2016-04-12T01:46:32.011Z,10.4
2016-04-12T01:47:31.981Z,10.44
2016-04-12T01:48:31.969Z,10.33
2016-04-12T01:49:31.940Z,10.4
2016-04-12T01:50:31.911Z,10.37
2016-04-12T01:51:31.883Z,10.37
2016-04-12T01:52:31.886Z,10.4
2016-04-12T01:53:31.857Z,10.35
2016-04-12T01:54:31.813Z,10.38
2016-04-12T01:55:31.800Z,10.34
2016-04-12T01:56:31.772Z,10.35
2016-04-12T01:57:31.759Z,10.31
2016-04-12T01:58:31.730Z,10.41
2016-04-12T01:59:31.701Z,10.34
2016-04-12T02:00:31.674Z,10.31
2016-04-12T02:01:31.660Z,10.31
2016-04-12T02:02:31.632Z,10.33
2016-04-12T02:03:31.603Z,10.3
2016-04-12T02:04:31.574Z,10.26
2016-04-12T02:05:31.562Z,10.28
2016-04-12T02:06:31.548Z,10.19
2016-04-12T02:07:31.504Z,10.28
2016-04-12T02:08:31.491Z,10.31
2016-04-12T02:09:31.462Z,10.33
2016-04-12T02:10:31.434Z,10.33
2016-04-12T02:11:31.405Z,10.31
2016-04-12T02:12:31.392Z,10.28
2016-04-12T02:13:31.364Z,10.33
2016-04-12T02:14:31.351Z,10.19
2016-04-12T02:15:31.306Z,10.26
2016-04-12T02:16:31.294Z,10.28
2016-04-12T02:17:31.265Z,10.33
2016-04-12T02:18:31.237Z,10.31
2016-04-12T02:19:31.225Z,10.3
2016-04-12T02:20:31.195Z,10.35
2016-04-12T02:21:31.167Z,10.3
2016-04-12T02:22:31.154Z,10.3
2016-04-12T02:23:31.125Z,10.33
2016-04-12T02:24:31.097Z,10.33
2016-04-12T02:25:31.069Z,10.3
2016-04-12T02:26:31.055Z,10.31
2016-04-12T02:27:31.027Z,10.3
2016-04-12T02:28:31.013Z,10.35
2016-04-12T02:29:30.985Z,10.26
2016-04-12T02:30:30.957Z,10.31
2016-04-12T02:31:30.927Z,10.26
2016-04-12T02:32:30.899Z,10.25
2016-04-12T02:33:30.887Z,10.31
2016-04-12T02:34:30.858Z,10.3
2016-04-12T02:35:30.830Z,10.3
2016-04-12T02:36:30.817Z,10.3
2016-04-12T02:37:30.788Z,10.34
2016-04-12T02:38:30.760Z,10.23
2016-04-12T02:39:30.590Z,10.3
2016-04-12T02:40:30.718Z,10.22
2016-04-12T02:41:30.690Z,10.3
2016-04-12T02:42:30.676Z,10.34
2016-04-12T02:43:30.648Z,10.31
2016-04-12T02:44:30.620Z,10.3
2016-04-12T02:45:30.591Z,10.34
2016-04-12T02:46:30.578Z,10.31
2016-04-12T02:47:30.550Z,10.17
2016-04-12T02:48:30.536Z,10.22
2016-04-12T02:49:30.508Z,10.28
2016-04-12T02:50:30.479Z,10.34
2016-04-12T02:51:30.466Z,10.3
2016-04-12T02:52:30.422Z,10.2
2016-04-12T02:53:30.409Z,10.28
2016-04-12T02:54:30.411Z,10.23
2016-04-12T02:55:30.352Z,10.2
2016-04-12T02:56:30.324Z,10.19
2016-04-12T02:57:30.310Z,10.31
2016-04-12T02:58:30.282Z,10.23
2016-04-12T02:59:30.252Z,10.3
2016-04-12T03:00:30.240Z,10.25
2016-04-12T03:01:30.212Z,10.31
2016-04-12T03:02:30.183Z,10.2
2016-04-12T03:03:30.170Z,10.3
2016-04-12T03:04:30.141Z,10.31
2016-04-12T03:05:30.113Z,10.34
2016-04-12T03:06:30.084Z,10.31
2016-04-12T03:07:30.071Z,10.31
2016-04-12T03:08:30.043Z,10.34
2016-04-12T03:09:30.014Z,10.34
2016-04-12T03:10:30.001Z,10.3
2016-04-12T03:11:29.989Z,10.28
2016-04-12T03:12:29.945Z,10.37
2016-04-12T03:13:29.916Z,10.34
2016-04-12T03:14:29.903Z,10.33
2016-04-12T03:15:29.890Z,10.31
2016-04-12T03:16:29.877Z,10.3
2016-04-12T03:17:29.833Z,10.28
2016-04-12T03:18:29.804Z,10.33
2016-04-12T03:19:29.775Z,10.31
2016-04-12T03:20:29.764Z,10.31
2016-04-12T03:21:29.735Z,10.28
2016-04-12T03:22:29.706Z,10.35
2016-04-12T03:23:29.678Z,10.26
2016-04-12T03:24:29.664Z,10.35
2016-04-12T03:25:29.636Z,10.37
2016-04-12T03:26:29.608Z,10.28
2016-04-12T03:27:29.578Z,10.37
2016-04-12T03:28:29.566Z,10.3
2016-04-12T03:29:29.537Z,10.37
2016-04-12T03:30:29.508Z,10.38
2016-04-12T03:31:29.496Z,10.35
2016-04-12T03:32:29.466Z,10.34
2016-04-12T03:33:29.438Z,10.41
2016-04-12T03:34:29.426Z,10.35
2016-04-12T03:35:29.397Z,10.4
2016-04-12T03:36:29.368Z,10.37
2016-04-12T03:37:29.355Z,10.37
2016-04-12T03:38:29.327Z,10.35
2016-04-12T03:39:29.299Z,10.42
2016-04-12T03:40:29.286Z,10.44
2016-04-12T03:41:29.257Z,10.54
2016-04-12T03:42:29.229Z,10.49
2016-04-12T03:43:29.200Z,10.44
2016-04-12T03:44:29.187Z,10.53
2016-04-12T03:45:29.159Z,10.54
2016-04-12T03:46:29.129Z,10.53
2016-04-12T03:47:28.382Z,10.57
2016-04-12T03:48:29.103Z,10.57
2016-04-12T03:49:29.059Z,10.51
2016-04-12T03:50:29.047Z,10.49
2016-04-12T03:51:29.017Z,10.49
2016-04-12T03:52:28.989Z,10.51
2016-04-12T03:53:28.977Z,10.51
2016-04-12T03:54:28.948Z,10.59
2016-04-12T03:55:28.936Z,10.6
2016-04-12T03:56:28.891Z,10.56
2016-04-12T03:57:28.863Z,10.54
2016-04-12T03:58:28.849Z,10.68
2016-04-12T03:59:28.837Z,10.53
2016-04-12T04:00:28.808Z,10.57
2016-04-12T04:01:28.624Z,10.56
2016-04-12T04:02:28.782Z,10.69
2016-04-12T04:03:28.738Z,10.61
2016-04-12T04:04:28.710Z,10.6
2016-04-12T04:05:28.681Z,10.67
2016-04-12T04:06:28.652Z,10.63
2016-04-12T04:07:28.623Z,10.63
2016-04-12T04:08:28.626Z,10.69
2016-04-12T04:09:28.583Z,10.59
2016-04-12T04:10:28.554Z,10.63
2016-04-12T04:11:28.541Z,10.68
2016-04-12T04:12:28.512Z,10.69
2016-04-12T04:13:28.499Z,10.68
2016-04-12T04:14:28.471Z,10.63
2016-04-12T04:15:28.442Z,10.64
2016-04-12T04:16:28.429Z,10.68
2016-04-12T04:17:28.400Z,10.72
2016-04-12T04:18:28.373Z,10.75
2016-04-12T04:19:28.343Z,10.69
2016-04-12T04:20:28.331Z,10.78
2016-04-12T04:21:28.302Z,10.72
2016-04-12T04:22:28.273Z,10.74
2016-04-12T04:23:28.261Z,10.74
2016-04-12T04:24:28.231Z,10.75
2016-04-12T04:25:28.203Z,10.79
2016-04-12T04:26:28.175Z,10.75
2016-04-12T04:27:28.162Z,10.79
2016-04-12T04:28:28.133Z,10.78
2016-04-12T04:29:28.105Z,10.87
2016-04-12T04:30:28.092Z,10.82
2016-04-12T04:31:28.063Z,10.87
2016-04-12T04:32:28.066Z,10.87
2016-04-12T04:33:28.022Z,10.72
2016-04-12T04:34:27.993Z,10.87
2016-04-12T04:35:27.965Z,10.87
2016-04-12T04:36:27.951Z,10.82
2016-04-12T04:37:27.924Z,10.76
2016-04-12T04:38:27.894Z,10.75
2016-04-12T04:39:27.882Z,10.75
2016-04-12T04:40:27.854Z,10.78
2016-04-12T04:41:27.824Z,10.79
2016-04-12T04:42:27.812Z,10.76
2016-04-12T04:43:27.783Z,10.75
2016-04-12T04:44:27.754Z,10.76
2016-04-12T04:45:27.742Z,10.75
2016-04-12T04:46:27.713Z,10.78
2016-04-12T04:47:27.715Z,10.75
2016-04-12T04:48:27.656Z,10.78
2016-04-12T04:49:27.643Z,10.76
2016-04-12T04:50:27.615Z,10.71
2016-04-12T04:51:27.586Z,10.69
2016-04-12T04:52:27.573Z,10.75
2016-04-12T04:53:27.544Z,10.71
2016-04-12T04:54:27.517Z,10.87
2016-04-12T04:55:27.503Z,10.81
2016-04-12T04:56:27.490Z,10.78
2016-04-12T04:57:27.461Z,10.82
2016-04-12T04:58:27.416Z,10.81
2016-04-12T04:59:27.405Z,10.86
2016-04-12T05:00:27.375Z,10.9
2016-04-12T05:01:27.363Z,10.9
2016-04-12T05:02:27.303Z,10.99
2016-04-12T05:03:27.305Z,10.96
2016-04-12T05:04:27.293Z,11
2016-04-12T05:05:27.264Z,10.97
2016-04-12T05:06:27.236Z,11
2016-04-12T05:07:27.207Z,11.04
2016-04-12T05:08:27.194Z,10.99
2016-04-12T05:09:27.166Z,10.94
2016-04-12T05:10:27.507Z,11
2016-04-12T05:11:27.118Z,11.08
2016-04-12T05:12:27.105Z,10.97
2016-04-12T05:13:27.077Z,11.04
2016-04-12T05:14:27.048Z,11.1
2016-04-12T05:15:27.019Z,11
2016-04-12T05:16:27.007Z,10.9
2016-04-12T05:17:26.994Z,10.96
2016-04-12T05:18:26.950Z,10.93
2016-04-12T05:19:26.936Z,10.99
2016-04-12T05:20:26.908Z,11.05
2016-04-12T05:21:26.880Z,11.04
2016-04-12T05:22:26.866Z,11.04
2016-04-12T05:23:26.838Z,11.02
2016-04-12T05:24:26.825Z,11.02
2016-04-12T05:25:26.797Z,11.11
2016-04-12T05:26:26.769Z,11.17
2016-04-12T05:27:26.755Z,11.12
2016-04-12T05:28:26.727Z,11.11
2016-04-12T05:29:26.697Z,11.27
2016-04-12T05:30:26.685Z,11.23
2016-04-12T05:31:26.657Z,11.33
2016-04-12T05:32:26.627Z,11.29
2016-04-12T05:33:26.615Z,11.33
2016-04-12T05:34:26.585Z,11.33
2016-04-12T05:35:26.574Z,11.43
2016-04-12T05:36:26.545Z,11.29
2016-04-12T05:37:26.515Z,11.36
2016-04-12T05:38:26.488Z,11.43
2016-04-12T05:39:26.474Z,11.44
2016-04-12T05:40:26.446Z,11.41
2016-04-12T05:41:26.434Z,11.37
2016-04-12T05:42:26.404Z,11.32
2016-04-12T05:43:26.376Z,11.48
2016-04-12T05:44:26.362Z,11.45
2016-04-12T05:45:26.335Z,11.51
2016-04-12T05:46:26.322Z,11.41
2016-04-12T05:47:26.309Z,11.47
2016-04-12T05:48:26.358Z,11.48
2016-04-12T05:49:26.251Z,11.55
2016-04-12T05:50:26.223Z,11.48
2016-04-12T05:51:26.194Z,11.55
2016-04-12T05:52:26.166Z,11.55
2016-04-12T05:53:26.153Z,11.6
2016-04-12T05:54:26.125Z,11.62
2016-04-12T05:55:26.111Z,11.62
2016-04-12T05:56:26.083Z,11.52
2016-04-12T05:57:26.070Z,11.6
2016-04-12T05:58:26.041Z,11.6
2016-04-12T05:59:26.013Z,11.62
2016-04-12T06:00:25.985Z,11.54
2016-04-12T06:01:25.971Z,11.54
2016-04-12T06:02:25.943Z,11.69
2016-04-12T06:03:25.930Z,11.66
2016-04-12T06:04:25.902Z,11.7
2016-04-12T06:05:25.873Z,11.7
2016-04-12T06:06:25.859Z,11.8
2016-04-12T06:07:25.832Z,11.75
2016-04-12T06:08:25.802Z,11.78
2016-04-12T06:09:25.790Z,11.78
2016-04-12T06:10:25.762Z,11.8
2016-04-12T06:11:25.748Z,11.87
2016-04-12T06:12:25.735Z,11.88
2016-04-12T06:13:25.722Z,11.83
2016-04-12T06:14:25.678Z,11.87
2016-04-12T06:15:25.650Z,11.99
2016-04-12T06:16:25.637Z,11.95
2016-04-12T06:17:25.608Z,12.07
2016-04-12T06:18:25.595Z,12.13
2016-04-12T06:19:25.567Z,12.09
2016-04-12T06:20:25.538Z,12.09
2016-04-12T06:21:25.525Z,12.1
2016-04-12T06:22:25.512Z,12.15
2016-04-12T06:23:25.484Z,12.28
2016-04-12T06:24:25.455Z,12.25
2016-04-12T06:25:25.442Z,12.29
2016-04-12T06:26:25.414Z,12.28
2016-04-12T06:27:25.385Z,12.37
2016-04-12T06:28:25.371Z,12.36
2016-04-12T06:29:25.344Z,12.4
2016-04-12T06:30:25.330Z,12.58
2016-04-12T06:31:25.302Z,12.53
2016-04-12T06:32:25.289Z,12.57
2016-04-12T06:33:25.260Z,12.7
2016-04-12T06:34:25.247Z,12.79
2016-04-12T06:35:25.219Z,12.8
2016-04-12T06:36:25.191Z,12.91
2016-04-12T06:37:25.177Z,12.95
2016-04-12T06:38:25.149Z,12.94
2016-04-12T06:39:25.136Z,13.04
2016-04-12T06:40:25.108Z,13.18
2016-04-12T06:41:25.095Z,13.15
2016-04-12T06:42:25.081Z,13.2
2016-04-12T06:43:25.053Z,13.27
2016-04-12T06:44:25.040Z,13.3
2016-04-12T06:45:25.012Z,13.41
2016-04-12T06:46:24.998Z,13.39
2016-04-12T06:47:24.970Z,13.41
2016-04-12T06:48:24.942Z,13.41
2016-04-12T06:49:24.928Z,13.53
2016-04-12T06:50:24.900Z,13.5
2016-04-12T06:51:24.903Z,13.56
2016-04-12T06:52:24.859Z,13.6
2016-04-12T06:53:25.002Z,13.57
2016-04-12T06:54:24.848Z,13.6
2016-04-12T06:55:24.820Z,13.57
2016-04-12T06:56:24.792Z,13.68
2016-04-12T06:57:24.763Z,13.67
2016-04-12T06:58:24.750Z,13.75
2016-04-12T06:59:24.721Z,13.7
2016-04-12T07:00:24.724Z,13.75
2016-04-12T07:01:24.710Z,13.74
2016-04-12T07:02:24.666Z,13.79
2016-04-12T07:03:24.700Z,13.89
2016-04-12T07:04:24.625Z,13.93
2016-04-12T07:05:24.596Z,13.89
2016-04-12T07:06:24.583Z,13.95
2016-04-12T07:07:24.555Z,14.03
2016-04-12T07:08:24.542Z,14.04
2016-04-12T07:09:24.513Z,14.03
2016-04-12T07:10:24.501Z,14.12
2016-04-12T07:11:24.487Z,14.23
2016-04-12T07:12:24.459Z,14.32
2016-04-12T07:13:24.446Z,14.36
2016-04-12T07:14:24.418Z,14.53
2016-04-12T07:15:24.404Z,14.63
2016-04-12T07:16:24.376Z,14.66
2016-04-12T07:17:24.363Z,14.7
2016-04-12T07:18:24.350Z,14.84
2016-04-12T07:19:24.337Z,14.94
2016-04-12T07:20:24.309Z,15.11
2016-04-12T07:21:24.296Z,15.25
2016-04-12T07:22:24.267Z,15.36
2016-04-12T07:23:24.254Z,15.44
2016-04-12T07:24:24.241Z,15.47
2016-04-12T07:25:24.244Z,15.61
2016-04-12T07:26:24.216Z,15.61
2016-04-12T07:27:24.203Z,15.65
2016-04-12T07:28:24.174Z,15.72
2016-04-12T07:29:24.161Z,15.8
2016-04-12T07:30:24.148Z,15.84
2016-04-12T07:31:24.135Z,15.84
2016-04-12T07:32:24.107Z,15.92
2016-04-12T07:33:24.094Z,15.98
2016-04-12T07:34:24.081Z,16.05
2016-04-12T07:35:24.068Z,16.05
2016-04-12T07:36:24.101Z,16.04
2016-04-12T07:37:24.105Z,16.16
2016-04-12T07:38:24.013Z,16.15
2016-04-12T07:39:24.001Z,16.23
2016-04-12T07:40:23.988Z,16.33
2016-04-12T07:41:23.974Z,16.36
2016-04-12T07:42:23.965Z,16.42
2016-04-12T07:43:24.000Z,16.38
2016-04-12T07:44:24.035Z,16.35
2016-04-12T07:45:24.070Z,16.41
2016-04-12T07:46:24.091Z,16.46
2016-04-12T07:47:24.123Z,16.49
2016-04-12T07:48:24.127Z,16.49
2016-04-12T07:49:24.131Z,16.47
2016-04-12T07:50:24.136Z,16.51
2016-04-12T07:51:24.140Z,16.54
2016-04-12T07:52:24.128Z,16.57
2016-04-12T07:53:24.122Z,16.58
2016-04-12T07:54:24.114Z,16.56
2016-04-12T07:55:24.107Z,16.66
2016-04-12T07:56:24.085Z,16.46
2016-04-12T07:57:24.078Z,16.47
2016-04-12T07:58:24.130Z,16.53
2016-04-12T07:59:24.057Z,16.49
2016-04-12T08:00:24.031Z,16.49
2016-04-12T08:01:24.019Z,16.43
2016-04-12T08:02:24.118Z,16.39
2016-04-12T08:03:24.044Z,16.39
2016-04-12T08:04:23.970Z,16.39
2016-04-12T08:05:23.957Z,16.32
2016-04-12T08:06:23.945Z,16.33
2016-04-12T08:07:23.933Z,16.21
2016-04-12T08:08:23.910Z,16.09
2016-04-12T08:09:23.897Z,16.04
2016-04-12T08:10:23.868Z,16.12
2016-04-12T08:11:23.934Z,16.1
2016-04-12T08:12:23.843Z,16.1
2016-04-12T08:13:23.814Z,16.2
2016-04-12T08:14:23.806Z,16.09
2016-04-12T08:15:23.778Z,16.16
2016-04-12T08:16:23.766Z,16.05
2016-04-12T08:17:23.753Z,16.13
2016-04-12T08:18:23.802Z,16.04
2016-04-12T08:19:23.710Z,16.04
2016-04-12T08:20:23.698Z,16.23
2016-04-12T08:21:23.700Z,16.23
2016-04-12T08:22:23.657Z,16.31
2016-04-12T08:23:23.705Z,16.33
2016-04-12T08:24:28.194Z,16.33
2016-04-12T08:25:23.602Z,16.35
2016-04-12T08:26:23.588Z,16.38
2016-04-12T08:27:23.560Z,16.29
2016-04-12T08:28:23.548Z,16.31
2016-04-12T08:29:23.535Z,16.28
2016-04-12T08:30:23.522Z,16.33
2016-04-12T08:31:23.493Z,16.36
2016-04-12T08:32:23.480Z,16.39
2016-04-12T08:33:23.576Z,16.39
2016-04-12T08:34:23.439Z,16.41
2016-04-12T08:35:23.426Z,16.39
2016-04-12T08:36:23.398Z,16.46
2016-04-12T08:37:23.384Z,16.33
2016-04-12T08:38:23.371Z,16.35
2016-04-12T08:39:23.359Z,16.35
2016-04-12T08:40:23.346Z,16.43
2016-04-12T08:41:23.411Z,16.51
2016-04-12T08:42:23.304Z,16.5
2016-04-12T08:43:23.276Z,16.61
2016-04-12T08:44:23.262Z,16.61
2016-04-12T08:45:23.234Z,16.65
2016-04-12T08:46:23.222Z,16.6
2016-04-12T08:47:23.208Z,16.66
2016-04-12T08:48:23.242Z,16.58
2016-04-12T08:49:23.167Z,16.6
2016-04-12T08:50:23.153Z,16.58
2016-04-12T08:51:23.141Z,16.68
2016-04-12T08:52:22.988Z,16.66
2016-04-12T08:53:23.099Z,16.72
2016-04-12T08:54:23.118Z,16.79
2016-04-12T08:55:23.074Z,16.87
2016-04-12T08:56:23.045Z,16.87
2016-04-12T08:57:23.032Z,16.87
2016-04-12T08:58:23.004Z,16.9
2016-04-12T08:59:23.007Z,17.01
2016-04-12T09:00:22.977Z,17.02
2016-04-12T09:01:22.949Z,16.99
2016-04-12T09:02:22.936Z,17.06
2016-04-12T09:03:23.001Z,17.04
2016-04-12T09:04:22.910Z,17.16
2016-04-12T09:05:22.881Z,17.15
2016-04-12T09:06:22.868Z,17.3
2016-04-12T09:07:22.856Z,17.31
2016-04-12T09:08:22.843Z,17.39
2016-04-12T09:09:22.819Z,17.41
2016-04-12T09:10:22.790Z,17.44
2016-04-12T09:11:22.778Z,17.45
2016-04-12T09:12:22.765Z,17.34
2016-04-12T09:13:22.752Z,17.39
2016-04-12T09:14:22.723Z,17.48
2016-04-12T09:15:22.710Z,17.41
2016-04-12T09:16:22.697Z,17.42
2016-04-12T09:17:22.669Z,17.48
2016-04-12T09:18:22.656Z,17.46
2016-04-12T09:19:23.096Z,17.49
2016-04-12T09:20:22.614Z,17.51
2016-04-12T09:21:22.601Z,17.65
2016-04-12T09:22:22.588Z,17.7
2016-04-12T09:23:22.575Z,17.76
2016-04-12T09:24:22.547Z,17.78
2016-04-12T09:25:22.534Z,17.76
2016-04-12T09:26:22.521Z,17.85
2016-04-12T09:27:22.508Z,17.82
2016-04-12T09:28:22.495Z,17.86
2016-04-12T09:29:22.482Z,17.89
2016-04-12T09:30:22.454Z,17.76
2016-04-12T09:31:22.441Z,17.83
2016-04-12T09:32:22.412Z,17.87
2016-04-12T09:33:22.415Z,17.85
2016-04-12T09:34:22.387Z,17.9
2016-04-12T09:35:22.374Z,17.92
2016-04-12T09:36:22.345Z,17.97
2016-04-12T09:37:22.332Z,18.07
2016-04-12T09:38:22.319Z,18.19
2016-04-12T09:39:22.306Z,18.11
2016-04-12T09:40:22.293Z,18.2
2016-04-12T09:41:22.281Z,18.22
2016-04-12T09:42:22.251Z,18.31
2016-04-12T09:43:22.239Z,18.31
2016-04-12T09:44:22.225Z,18.35
2016-04-12T09:45:22.213Z,18.33
2016-04-12T09:46:22.278Z,18.44
2016-04-12T09:47:22.172Z,18.5
2016-04-12T09:48:22.158Z,18.53
2016-04-12T09:49:22.145Z,18.59
2016-04-12T09:50:22.117Z,18.63
2016-04-12T09:51:22.104Z,18.62
2016-04-12T09:52:22.090Z,18.71
2016-04-12T09:53:22.077Z,18.9
2016-04-12T09:54:22.066Z,18.99
2016-04-12T09:55:22.052Z,19.12
2016-04-12T09:56:22.039Z,19.19
2016-04-12T09:57:22.026Z,19.21
2016-04-12T09:58:22.013Z,19.22
2016-04-12T09:59:22.001Z,19.15
2016-04-12T10:00:21.988Z,19.22
2016-04-12T10:01:21.960Z,19.24
2016-04-12T10:02:21.962Z,19.29
2016-04-12T10:03:21.932Z,19.27
2016-04-12T10:04:21.920Z,19.37
2016-04-12T10:05:21.907Z,19.47
2016-04-12T10:06:21.878Z,19.52
2016-04-12T10:07:21.882Z,19.45
2016-04-12T10:08:21.853Z,19.41
2016-04-12T10:09:21.856Z,19.51
2016-04-12T10:10:21.842Z,19.62
2016-04-12T10:11:21.814Z,19.62
2016-04-12T10:12:21.801Z,19.79
2016-04-12T10:13:21.803Z,19.76
2016-04-12T10:14:21.775Z,19.86
2016-04-12T10:15:21.761Z,19.88
2016-04-12T10:16:21.765Z,19.82
2016-04-12T10:17:21.736Z,19.88
2016-04-12T10:18:21.723Z,19.95
2016-04-12T10:19:21.710Z,19.96
2016-04-12T10:20:21.697Z,20.07
2016-04-12T10:21:21.685Z,19.95
2016-04-12T10:22:21.672Z,19.95
2016-04-12T10:23:21.659Z,19.95
2016-04-12T10:24:21.646Z,19.99
2016-04-12T10:25:21.632Z,20.03
2016-04-12T10:26:21.619Z,20
2016-04-12T10:27:21.591Z,20.07
2016-04-12T10:28:21.594Z,20.09
2016-04-12T10:29:21.565Z,20.04
2016-04-12T10:30:21.568Z,19.96
2016-04-12T10:31:21.587Z,19.91
2016-04-12T10:32:21.542Z,19.76
2016-04-12T10:33:21.529Z,19.71
2016-04-12T10:34:21.579Z,19.69
2016-04-12T10:35:21.487Z,19.69
2016-04-12T10:36:21.476Z,19.73
2016-04-12T10:37:21.462Z,19.7
2016-04-12T10:38:21.449Z,19.73
2016-04-12T10:39:21.436Z,19.76
2016-04-12T10:40:21.439Z,19.79
2016-04-12T10:41:21.488Z,19.7
2016-04-12T10:42:21.397Z,19.74
2016-04-12T10:43:21.385Z,19.76
2016-04-12T10:44:21.372Z,19.79
2016-04-12T10:45:21.359Z,19.69
2016-04-12T10:46:21.345Z,19.73
2016-04-12T10:47:21.333Z,19.71
2016-04-12T10:48:21.320Z,19.73
2016-04-12T10:49:21.307Z,19.69
2016-04-12T10:50:21.294Z,19.81
2016-04-12T10:51:21.280Z,19.71
2016-04-12T10:52:21.253Z,19.79
2016-04-12T10:53:21.239Z,19.69
2016-04-12T10:54:21.227Z,19.79
2016-04-12T10:55:21.214Z,19.66
2016-04-12T10:56:21.200Z,19.7
2016-04-12T10:57:21.188Z,19.69
2016-04-12T10:58:21.174Z,19.7
2016-04-12T10:59:21.162Z,19.71
2016-04-12T11:00:21.149Z,19.73
2016-04-12T11:01:21.135Z,19.76
2016-04-12T11:02:21.107Z,19.7
2016-04-12T11:03:21.344Z,19.7
2016-04-12T11:04:20.940Z,19.76
2016-04-12T11:05:21.068Z,19.71
2016-04-12T11:06:21.071Z,19.79
2016-04-12T11:07:21.042Z,19.71
2016-04-12T11:08:21.029Z,19.73
2016-04-12T11:09:21.018Z,19.77
2016-04-12T11:10:21.020Z,19.77
2016-04-12T11:11:20.990Z,19.81
2016-04-12T11:12:20.978Z,19.85
2016-04-12T11:13:20.980Z,19.82
2016-04-12T11:14:20.953Z,19.88
2016-04-12T11:15:20.939Z,19.86
2016-04-12T11:16:20.926Z,19.85
2016-04-12T11:17:20.913Z,19.77
2016-04-12T11:18:20.900Z,19.74
2016-04-12T11:19:20.887Z,19.74
2016-04-12T11:20:20.874Z,19.77
2016-04-12T11:21:20.861Z,19.82
2016-04-12T11:22:20.849Z,19.85
2016-04-12T11:23:20.836Z,19.86
2016-04-12T11:24:20.823Z,19.71
2016-04-12T11:25:20.810Z,19.82
2016-04-12T11:26:20.797Z,19.82
2016-04-12T11:27:20.783Z,19.82
2016-04-12T11:28:20.771Z,19.92
2016-04-12T11:29:20.743Z,19.99
2016-04-12T11:30:20.730Z,20.16
2016-04-12T11:31:20.733Z,20.26
2016-04-12T11:32:20.703Z,20.36
2016-04-12T11:33:20.691Z,20.43
2016-04-12T11:34:20.694Z,20.51
2016-04-12T11:35:20.665Z,20.44
2016-04-12T11:36:20.652Z,20.39
2016-04-12T11:37:20.639Z,20.44
2016-04-12T11:38:20.626Z,20.56
2016-04-12T11:39:20.612Z,20.58
2016-04-12T11:40:20.600Z,20.72
2016-04-12T11:41:20.587Z,20.93
2016-04-12T11:42:20.573Z,20.88
2016-04-12T11:43:20.561Z,21.03
2016-04-12T11:44:20.565Z,21.06
2016-04-12T11:45:20.551Z,21.05
2016-04-12T11:46:20.522Z,21.11
2016-04-12T11:47:20.509Z,21.21
2016-04-12T11:48:20.497Z,21.25
2016-04-12T11:49:20.500Z,21.32
2016-04-12T11:50:20.470Z,21.33
2016-04-12T11:51:20.458Z,21.24
2016-04-12T11:52:20.444Z,21.35
2016-04-12T11:53:20.432Z,21.32
2016-04-12T11:54:20.419Z,21.29
2016-04-12T11:55:20.422Z,21.43
2016-04-12T11:56:20.393Z,21.55
2016-04-12T11:57:20.380Z,21.57
2016-04-12T11:58:20.492Z,21.57
2016-04-12T11:59:20.355Z,21.62
2016-04-12T12:00:20.342Z,21.6
2016-04-12T12:01:20.329Z,21.57
2016-04-12T12:02:20.707Z,21.61
2016-04-12T12:03:20.318Z,21.64
2016-04-12T12:04:20.337Z,21.64
2016-04-12T12:05:20.277Z,21.73
2016-04-12T12:06:20.279Z,21.61
2016-04-12T12:07:20.266Z,21.61
2016-04-12T12:08:20.254Z,21.55
2016-04-12T12:09:20.225Z,21.39
2016-04-12T12:10:20.212Z,21.36
2016-04-12T12:11:20.198Z,21.4
2016-04-12T12:12:20.186Z,21.4
2016-04-12T12:13:20.174Z,21.51
2016-04-12T12:14:20.160Z,21.57
2016-04-12T12:15:20.147Z,21.62
2016-04-12T12:16:20.134Z,21.67
2016-04-12T12:17:20.122Z,21.69
2016-04-12T12:18:20.125Z,21.66
2016-04-12T12:19:20.112Z,21.69
2016-04-12T12:20:20.098Z,21.69
2016-04-12T12:21:20.086Z,21.8
2016-04-12T12:22:20.073Z,21.82
2016-04-12T12:23:20.059Z,21.93
2016-04-12T12:24:20.047Z,22.08
2016-04-12T12:25:20.034Z,22.07
2016-04-12T12:26:20.052Z,22.07
2016-04-12T12:27:20.008Z,21.99
2016-04-12T12:28:19.995Z,22.1
2016-04-12T12:29:19.997Z,21.99
2016-04-12T12:30:19.969Z,21.92
2016-04-12T12:31:19.956Z,21.89
2016-04-12T12:32:19.958Z,21.76
2016-04-12T12:33:19.946Z,21.69
2016-04-12T12:34:19.933Z,21.6
2016-04-12T12:35:19.920Z,21.51
2016-04-12T12:36:19.907Z,21.37
2016-04-12T12:37:19.910Z,21.42
2016-04-12T12:38:19.882Z,21.37
2016-04-12T12:39:19.868Z,21.36
2016-04-12T12:40:19.871Z,21.37
2016-04-12T12:41:19.842Z,21.36
2016-04-12T12:42:19.829Z,21.36
2016-04-12T12:43:19.817Z,21.46
2016-04-12T12:44:19.804Z,21.42
2016-04-12T12:45:19.791Z,21.3
2016-04-12T12:46:19.778Z,21.09
2016-04-12T12:47:19.795Z,21.05
2016-04-12T12:48:19.767Z,21
2016-04-12T12:49:19.754Z,21.11
2016-04-12T12:50:19.741Z,21.21
2016-04-12T12:51:19.729Z,21.25
2016-04-12T12:52:19.716Z,21.24
2016-04-12T12:53:19.702Z,21.29
2016-04-12T12:54:19.689Z,21.25
2016-04-12T12:55:19.692Z,21.25
2016-04-12T12:56:19.664Z,21.36